sensor_id;sensor_type;location;lat;lon;timestamp;temperature;humidity
14551;DHT22;7362;50.956;4.184;2022-07-22T00:00:15;17.50;99.90
14551;DHT22;7362;50.956;4.184;2022-07-22T00:02:41;17.30;99.90
14551;DHT22;7362;50.956;4.184;2022-07-22T00:05:08;17.30;99.90
14551;DHT22;7362;50.956;4.184;2022-07-22T00:07:36;17.40;99.90
14551;DHT22;7362;50.956;4.184;2022-07-22T00:10:04;17.30;99.90
14551;DHT22;7362;50.956;4.184;2022-07-22T00:12:30;17.20;99.90
14551;DHT22;7362;50.956;4.184;2022-07-22T00:14:55;17.20;99.90
14551;DHT22;7362;50.956;4.184;2022-07-22T00:17:21;17.10;99.90
14551;DHT22;7362;50.956;4.184;2022-07-22T00:19:47;17.30;99.90
14551;DHT22;7362;50.956;4.184;2022-07-22T00:22:12;17.30;99.90
14551;DHT22;7362;50.956;4.184;2022-07-22T00:24:38;17.40;99.90
14551;DHT22;7362;50.956;4.184;2022-07-22T00:27:04;17.40;99.90
14551;DHT22;7362;50.956;4.184;2022-07-22T00:29:30;17.30;99.90
14551;DHT22;7362;50.956;4.184;2022-07-22T00:31:56;17.20;99.90
14551;DHT22;7362;50.956;4.184;2022-07-22T00:34:22;17.20;99.90
14551;DHT22;7362;50.956;4.184;2022-07-22T00:36:47;17.20;99.90
14551;DHT22;7362;50.956;4.184;2022-07-22T00:39:13;17.20;99.90
14551;DHT22;7362;50.956;4.184;2022-07-22T00:41:43;17.30;99.90
14551;DHT22;7362;50.956;4.184;2022-07-22T00:44:11;17.20;99.90
14551;DHT22;7362;50.956;4.184;2022-07-22T00:46:37;17.20;99.90
14551;DHT22;7362;50.956;4.184;2022-07-22T00:49:07;17.20;99.90
14551;DHT22;7362;50.956;4.184;2022-07-22T00:51:36;17.10;99.90
14551;DHT22;7362;50.956;4.184;2022-07-22T00:54:04;17.20;99.90
14551;DHT22;7362;50.956;4.184;2022-07-22T00:59:34;17.20;99.90
14551;DHT22;7362;50.956;4.184;2022-07-22T01:02:01;17.30;99.90
14551;DHT22;7362;50.956;4.184;2022-07-22T01:04:27;17.20;99.90
14551;DHT22;7362;50.956;4.184;2022-07-22T01:06:53;17.30;99.90
14551;DHT22;7362;50.956;4.184;2022-07-22T01:09:19;17.20;99.90
14551;DHT22;7362;50.956;4.184;2022-07-22T01:11:45;17.30;99.90
14551;DHT22;7362;50.956;4.184;2022-07-22T01:14:11;17.40;99.90
14551;DHT22;7362;50.956;4.184;2022-07-22T01:16:36;17.40;99.90
14551;DHT22;7362;50.956;4.184;2022-07-22T01:19:03;17.30;99.90
14551;DHT22;7362;50.956;4.184;2022-07-22T01:21:31;17.30;99.90
14551;DHT22;7362;50.956;4.184;2022-07-22T01:23:57;17.30;99.90
14551;DHT22;7362;50.956;4.184;2022-07-22T01:26:23;17.40;99.90
14551;DHT22;7362;50.956;4.184;2022-07-22T01:28:49;17.40;99.90
14551;DHT22;7362;50.956;4.184;2022-07-22T01:31:14;17.30;99.90
14551;DHT22;7362;50.956;4.184;2022-07-22T01:33:40;17.20;99.90
14551;DHT22;7362;50.956;4.184;2022-07-22T01:36:06;17.10;99.90
14551;DHT22;7362;50.956;4.184;2022-07-22T01:38:32;17.00;99.90
14551;DHT22;7362;50.956;4.184;2022-07-22T01:40:58;16.90;99.90
14551;DHT22;7362;50.956;4.184;2022-07-22T01:43:25;17.00;99.90
14551;DHT22;7362;50.956;4.184;2022-07-22T01:45:53;17.20;99.90
14551;DHT22;7362;50.956;4.184;2022-07-22T01:48:21;17.30;99.90
14551;DHT22;7362;50.956;4.184;2022-07-22T01:50:47;17.30;99.90
14551;DHT22;7362;50.956;4.184;2022-07-22T01:53:13;17.30;99.90
14551;DHT22;7362;50.956;4.184;2022-07-22T01:55:39;17.20;99.90
14551;DHT22;7362;50.956;4.184;2022-07-22T01:58:05;17.20;99.90
14551;DHT22;7362;50.956;4.184;2022-07-22T02:00:32;17.20;99.90
14551;DHT22;7362;50.956;4.184;2022-07-22T02:03:00;17.30;99.90
14551;DHT22;7362;50.956;4.184;2022-07-22T02:05:26;17.30;99.90
14551;DHT22;7362;50.956;4.184;2022-07-22T02:07:51;17.30;99.90
14551;DHT22;7362;50.956;4.184;2022-07-22T02:10:17;17.20;99.90
14551;DHT22;7362;50.956;4.184;2022-07-22T02:12:44;17.30;99.90
14551;DHT22;7362;50.956;4.184;2022-07-22T02:15:10;17.30;99.90
14551;DHT22;7362;50.956;4.184;2022-07-22T02:17:36;17.20;99.90
14551;DHT22;7362;50.956;4.184;2022-07-22T02:20:03;17.10;99.90
14551;DHT22;7362;50.956;4.184;2022-07-22T02:22:29;17.00;99.90
14551;DHT22;7362;50.956;4.184;2022-07-22T02:24:54;17.00;99.90
14551;DHT22;7362;50.956;4.184;2022-07-22T02:27:20;17.00;99.90
14551;DHT22;7362;50.956;4.184;2022-07-22T02:29:47;16.90;99.90
14551;DHT22;7362;50.956;4.184;2022-07-22T02:32:12;16.90;99.90
14551;DHT22;7362;50.956;4.184;2022-07-22T02:34:38;16.90;99.90
14551;DHT22;7362;50.956;4.184;2022-07-22T02:37:04;16.90;99.90
14551;DHT22;7362;50.956;4.184;2022-07-22T02:39:32;16.90;99.90
14551;DHT22;7362;50.956;4.184;2022-07-22T02:41:58;16.90;99.90
14551;DHT22;7362;50.956;4.184;2022-07-22T02:44:24;17.00;99.90
14551;DHT22;7362;50.956;4.184;2022-07-22T02:46:50;17.00;99.90
14551;DHT22;7362;50.956;4.184;2022-07-22T02:49:16;17.00;99.90
14551;DHT22;7362;50.956;4.184;2022-07-22T02:51:41;17.00;99.90
14551;DHT22;7362;50.956;4.184;2022-07-22T02:54:07;17.00;99.90
14551;DHT22;7362;50.956;4.184;2022-07-22T02:56:34;17.10;99.90
14551;DHT22;7362;50.956;4.184;2022-07-22T02:58:59;17.10;99.90
14551;DHT22;7362;50.956;4.184;2022-07-22T03:01:30;17.10;99.90
14551;DHT22;7362;50.956;4.184;2022-07-22T03:03:55;17.00;99.90
14551;DHT22;7362;50.956;4.184;2022-07-22T03:06:22;17.00;99.90
14551;DHT22;7362;50.956;4.184;2022-07-22T03:08:49;16.90;99.90
14551;DHT22;7362;50.956;4.184;2022-07-22T03:11:15;16.80;99.90
14551;DHT22;7362;50.956;4.184;2022-07-22T03:13:40;16.80;99.90
14551;DHT22;7362;50.956;4.184;2022-07-22T03:16:06;16.80;99.90
14551;DHT22;7362;50.956;4.184;2022-07-22T03:18:32;16.70;99.90
14551;DHT22;7362;50.956;4.184;2022-07-22T03:20:59;16.70;99.90
14551;DHT22;7362;50.956;4.184;2022-07-22T03:23:24;16.70;99.90
14551;DHT22;7362;50.956;4.184;2022-07-22T03:25:50;16.70;99.90
14551;DHT22;7362;50.956;4.184;2022-07-22T03:28:16;16.80;99.90
14551;DHT22;7362;50.956;4.184;2022-07-22T03:30:42;16.70;99.90
14551;DHT22;7362;50.956;4.184;2022-07-22T03:33:08;16.60;99.90
14551;DHT22;7362;50.956;4.184;2022-07-22T03:35:34;16.50;99.90
14551;DHT22;7362;50.956;4.184;2022-07-22T03:38:00;16.40;99.90
14551;DHT22;7362;50.956;4.184;2022-07-22T03:40:27;16.30;99.90
14551;DHT22;7362;50.956;4.184;2022-07-22T03:42:54;16.20;99.90
14551;DHT22;7362;50.956;4.184;2022-07-22T03:45:21;16.20;99.90
14551;DHT22;7362;50.956;4.184;2022-07-22T03:47:47;16.20;99.90
14551;DHT22;7362;50.956;4.184;2022-07-22T03:50:13;16.20;99.90
14551;DHT22;7362;50.956;4.184;2022-07-22T03:52:38;16.20;99.90
14551;DHT22;7362;50.956;4.184;2022-07-22T03:55:04;16.30;99.90
14551;DHT22;7362;50.956;4.184;2022-07-22T03:57:31;16.40;99.90
14551;DHT22;7362;50.956;4.184;2022-07-22T03:59:57;16.40;99.90
14551;DHT22;7362;50.956;4.184;2022-07-22T04:02:22;16.40;99.90
14551;DHT22;7362;50.956;4.184;2022-07-22T04:04:48;16.20;99.90
14551;DHT22;7362;50.956;4.184;2022-07-22T04:07:15;16.30;99.90
14551;DHT22;7362;50.956;4.184;2022-07-22T04:09:44;16.30;99.90
14551;DHT22;7362;50.956;4.184;2022-07-22T04:12:11;16.30;99.90
14551;DHT22;7362;50.956;4.184;2022-07-22T04:14:40;16.20;99.90
14551;DHT22;7362;50.956;4.184;2022-07-22T04:17:09;16.10;99.90
14551;DHT22;7362;50.956;4.184;2022-07-22T04:19:35;16.10;99.90
14551;DHT22;7362;50.956;4.184;2022-07-22T04:22:02;16.10;99.90
14551;DHT22;7362;50.956;4.184;2022-07-22T04:24:30;16.20;99.90
14551;DHT22;7362;50.956;4.184;2022-07-22T04:26:55;16.30;99.90
14551;DHT22;7362;50.956;4.184;2022-07-22T04:29:21;16.50;99.90
14551;DHT22;7362;50.956;4.184;2022-07-22T04:31:47;16.60;99.90
14551;DHT22;7362;50.956;4.184;2022-07-22T04:34:14;16.50;99.90
14551;DHT22;7362;50.956;4.184;2022-07-22T04:36:40;16.40;99.90
14551;DHT22;7362;50.956;4.184;2022-07-22T04:39:05;16.50;99.90
14551;DHT22;7362;50.956;4.184;2022-07-22T04:41:31;16.50;99.90
14551;DHT22;7362;50.956;4.184;2022-07-22T04:43:57;16.60;99.90
14551;DHT22;7362;50.956;4.184;2022-07-22T04:46:22;16.70;99.90
14551;DHT22;7362;50.956;4.184;2022-07-22T04:48:48;16.80;99.90
14551;DHT22;7362;50.956;4.184;2022-07-22T04:51:17;16.80;99.90
14551;DHT22;7362;50.956;4.184;2022-07-22T04:53:43;16.90;99.90
14551;DHT22;7362;50.956;4.184;2022-07-22T04:56:11;17.20;99.90
14551;DHT22;7362;50.956;4.184;2022-07-22T04:58:37;17.60;99.90
14551;DHT22;7362;50.956;4.184;2022-07-22T05:01:04;17.90;99.90
14551;DHT22;7362;50.956;4.184;2022-07-22T05:03:31;18.50;99.90
14551;DHT22;7362;50.956;4.184;2022-07-22T05:05:57;19.10;99.90
14551;DHT22;7362;50.956;4.184;2022-07-22T05:08:22;19.50;99.90
14551;DHT22;7362;50.956;4.184;2022-07-22T05:10:48;19.90;99.90
14551;DHT22;7362;50.956;4.184;2022-07-22T05:13:13;20.10;99.90
14551;DHT22;7362;50.956;4.184;2022-07-22T05:15:40;20.10;99.90
14551;DHT22;7362;50.956;4.184;2022-07-22T05:18:06;20.00;99.90
14551;DHT22;7362;50.956;4.184;2022-07-22T05:20:31;20.20;99.90
14551;DHT22;7362;50.956;4.184;2022-07-22T05:22:57;20.10;99.90
14551;DHT22;7362;50.956;4.184;2022-07-22T05:25:24;19.90;99.90
14551;DHT22;7362;50.956;4.184;2022-07-22T05:27:52;19.70;99.90
14551;DHT22;7362;50.956;4.184;2022-07-22T05:30:19;19.40;99.90
14551;DHT22;7362;50.956;4.184;2022-07-22T05:32:46;19.40;99.90
14551;DHT22;7362;50.956;4.184;2022-07-22T05:35:12;19.90;99.90
14551;DHT22;7362;50.956;4.184;2022-07-22T05:37:37;20.40;99.90
14551;DHT22;7362;50.956;4.184;2022-07-22T05:40:04;20.90;99.90
14551;DHT22;7362;50.956;4.184;2022-07-22T05:42:30;21.00;99.90
14551;DHT22;7362;50.956;4.184;2022-07-22T05:44:57;21.90;99.90
14551;DHT22;7362;50.956;4.184;2022-07-22T05:47:23;22.60;99.90
14551;DHT22;7362;50.956;4.184;2022-07-22T05:49:52;22.50;99.90
14551;DHT22;7362;50.956;4.184;2022-07-22T05:52:18;22.70;99.90
14551;DHT22;7362;50.956;4.184;2022-07-22T05:54:44;23.40;99.90
14551;DHT22;7362;50.956;4.184;2022-07-22T05:57:10;23.70;99.90
14551;DHT22;7362;50.956;4.184;2022-07-22T05:59:37;23.80;99.90
14551;DHT22;7362;50.956;4.184;2022-07-22T06:02:03;23.70;99.90
14551;DHT22;7362;50.956;4.184;2022-07-22T06:04:29;22.80;99.90
14551;DHT22;7362;50.956;4.184;2022-07-22T06:06:56;22.70;99.90
14551;DHT22;7362;50.956;4.184;2022-07-22T06:09:22;22.60;99.90
14551;DHT22;7362;50.956;4.184;2022-07-22T06:11:48;22.80;99.90
14551;DHT22;7362;50.956;4.184;2022-07-22T06:14:15;23.50;99.90
14551;DHT22;7362;50.956;4.184;2022-07-22T06:16:44;24.50;99.90
14551;DHT22;7362;50.956;4.184;2022-07-22T06:19:11;24.90;99.90
14551;DHT22;7362;50.956;4.184;2022-07-22T06:21:37;24.80;99.90
14551;DHT22;7362;50.956;4.184;2022-07-22T06:24:05;24.90;99.90
14551;DHT22;7362;50.956;4.184;2022-07-22T06:26:33;25.30;99.90
14551;DHT22;7362;50.956;4.184;2022-07-22T06:29:01;24.20;99.90
14551;DHT22;7362;50.956;4.184;2022-07-22T06:31:27;23.80;99.90
14551;DHT22;7362;50.956;4.184;2022-07-22T06:33:52;23.50;99.90
14551;DHT22;7362;50.956;4.184;2022-07-22T06:36:19;24.30;99.90
14551;DHT22;7362;50.956;4.184;2022-07-22T06:38:45;25.40;99.90
14551;DHT22;7362;50.956;4.184;2022-07-22T06:41:10;26.60;99.90
14551;DHT22;7362;50.956;4.184;2022-07-22T06:43:39;26.60;99.90
14551;DHT22;7362;50.956;4.184;2022-07-22T06:46:06;26.60;99.90
14551;DHT22;7362;50.956;4.184;2022-07-22T06:48:33;27.80;99.90
14551;DHT22;7362;50.956;4.184;2022-07-22T06:50:58;28.30;99.90
14551;DHT22;7362;50.956;4.184;2022-07-22T06:53:25;28.10;99.90
14551;DHT22;7362;50.956;4.184;2022-07-22T06:55:51;27.40;99.90
14551;DHT22;7362;50.956;4.184;2022-07-22T06:58:23;26.20;99.90
14551;DHT22;7362;50.956;4.184;2022-07-22T07:00:50;25.90;99.90
14551;DHT22;7362;50.956;4.184;2022-07-22T07:03:16;26.50;99.90
14551;DHT22;7362;50.956;4.184;2022-07-22T07:05:41;25.70;99.90
14551;DHT22;7362;50.956;4.184;2022-07-22T07:08:07;24.60;99.90
14551;DHT22;7362;50.956;4.184;2022-07-22T07:10:33;23.70;99.90
14551;DHT22;7362;50.956;4.184;2022-07-22T07:12:59;23.70;99.90
14551;DHT22;7362;50.956;4.184;2022-07-22T07:15:26;23.30;99.90
14551;DHT22;7362;50.956;4.184;2022-07-22T07:17:55;22.60;99.90
14551;DHT22;7362;50.956;4.184;2022-07-22T07:20:23;22.40;99.90
14551;DHT22;7362;50.956;4.184;2022-07-22T07:22:49;22.50;99.90
14551;DHT22;7362;50.956;4.184;2022-07-22T07:25:15;22.70;99.90
14551;DHT22;7362;50.956;4.184;2022-07-22T07:27:45;22.90;99.90
14551;DHT22;7362;50.956;4.184;2022-07-22T07:30:11;22.50;99.90
14551;DHT22;7362;50.956;4.184;2022-07-22T07:32:37;22.30;99.90
14551;DHT22;7362;50.956;4.184;2022-07-22T07:35:05;22.60;99.90
14551;DHT22;7362;50.956;4.184;2022-07-22T07:37:33;22.80;99.90
14551;DHT22;7362;50.956;4.184;2022-07-22T07:39:59;22.80;99.90
14551;DHT22;7362;50.956;4.184;2022-07-22T07:42:26;22.70;99.90
14551;DHT22;7362;50.956;4.184;2022-07-22T07:44:52;23.00;99.90
14551;DHT22;7362;50.956;4.184;2022-07-22T07:47:18;23.20;99.90
14551;DHT22;7362;50.956;4.184;2022-07-22T07:49:49;23.20;99.90
14551;DHT22;7362;50.956;4.184;2022-07-22T07:52:22;23.80;99.90
14551;DHT22;7362;50.956;4.184;2022-07-22T07:55:13;24.30;99.90
14551;DHT22;7362;50.956;4.184;2022-07-22T07:57:41;23.80;99.90
14551;DHT22;7362;50.956;4.184;2022-07-22T08:00:09;23.40;99.90
14551;DHT22;7362;50.956;4.184;2022-07-22T08:02:35;23.30;99.90
14551;DHT22;7362;50.956;4.184;2022-07-22T08:05:02;22.80;99.90
14551;DHT22;7362;50.956;4.184;2022-07-22T08:07:32;22.80;99.90
14551;DHT22;7362;50.956;4.184;2022-07-22T08:10:01;22.80;99.90
14551;DHT22;7362;50.956;4.184;2022-07-22T08:12:29;22.60;99.90
14551;DHT22;7362;50.956;4.184;2022-07-22T08:14:56;22.20;99.90
14551;DHT22;7362;50.956;4.184;2022-07-22T08:17:23;22.10;99.90
14551;DHT22;7362;50.956;4.184;2022-07-22T08:19:49;22.30;99.90
14551;DHT22;7362;50.956;4.184;2022-07-22T08:22:15;22.70;99.90
14551;DHT22;7362;50.956;4.184;2022-07-22T08:24:41;23.50;99.90
14551;DHT22;7362;50.956;4.184;2022-07-22T08:27:07;23.80;99.90
14551;DHT22;7362;50.956;4.184;2022-07-22T08:29:33;23.50;99.90
14551;DHT22;7362;50.956;4.184;2022-07-22T08:31:58;23.30;99.90
14551;DHT22;7362;50.956;4.184;2022-07-22T08:34:24;23.20;99.90
14551;DHT22;7362;50.956;4.184;2022-07-22T08:36:50;23.50;99.90
14551;DHT22;7362;50.956;4.184;2022-07-22T08:39:16;24.00;99.90
14551;DHT22;7362;50.956;4.184;2022-07-22T08:41:43;24.20;99.90
14551;DHT22;7362;50.956;4.184;2022-07-22T08:44:09;24.20;99.90
14551;DHT22;7362;50.956;4.184;2022-07-22T08:46:37;24.20;99.90
14551;DHT22;7362;50.956;4.184;2022-07-22T08:49:03;24.00;99.90
14551;DHT22;7362;50.956;4.184;2022-07-22T08:51:33;23.90;99.90
14551;DHT22;7362;50.956;4.184;2022-07-22T08:53:58;24.30;99.90
14551;DHT22;7362;50.956;4.184;2022-07-22T08:56:24;26.20;99.90
14551;DHT22;7362;50.956;4.184;2022-07-22T08:58:52;26.20;99.90
14551;DHT22;7362;50.956;4.184;2022-07-22T09:01:17;25.70;99.90
14551;DHT22;7362;50.956;4.184;2022-07-22T09:03:54;27.50;99.90
14551;DHT22;7362;50.956;4.184;2022-07-22T09:06:25;28.60;99.90
14551;DHT22;7362;50.956;4.184;2022-07-22T09:09:06;29.50;99.90
14551;DHT22;7362;50.956;4.184;2022-07-22T09:11:34;30.00;99.90
14551;DHT22;7362;50.956;4.184;2022-07-22T09:14:01;28.30;99.90
14551;DHT22;7362;50.956;4.184;2022-07-22T09:16:47;28.30;99.90
14551;DHT22;7362;50.956;4.184;2022-07-22T09:19:31;27.90;99.90
14551;DHT22;7362;50.956;4.184;2022-07-22T09:21:58;27.90;99.90
14551;DHT22;7362;50.956;4.184;2022-07-22T09:24:39;27.30;99.90
14551;DHT22;7362;50.956;4.184;2022-07-22T09:27:05;27.30;99.90
14551;DHT22;7362;50.956;4.184;2022-07-22T09:29:32;28.10;99.90
14551;DHT22;7362;50.956;4.184;2022-07-22T09:31:58;28.50;99.90
14551;DHT22;7362;50.956;4.184;2022-07-22T09:34:28;27.80;99.80
14551;DHT22;7362;50.956;4.184;2022-07-22T09:37:07;27.60;99.90
14551;DHT22;7362;50.956;4.184;2022-07-22T09:39:34;28.80;99.90
14551;DHT22;7362;50.956;4.184;2022-07-22T09:42:04;31.60;97.00
14551;DHT22;7362;50.956;4.184;2022-07-22T09:44:32;31.70;94.10
14551;DHT22;7362;50.956;4.184;2022-07-22T09:46:58;31.60;94.10
14551;DHT22;7362;50.956;4.184;2022-07-22T09:49:38;31.40;93.80
14551;DHT22;7362;50.956;4.184;2022-07-22T09:52:08;31.10;93.40
14551;DHT22;7362;50.956;4.184;2022-07-22T09:54:36;29.50;94.60
14551;DHT22;7362;50.956;4.184;2022-07-22T09:57:02;29.60;94.80
14551;DHT22;7362;50.956;4.184;2022-07-22T09:59:31;29.20;95.40
14551;DHT22;7362;50.956;4.184;2022-07-22T10:02:03;28.90;95.70
14551;DHT22;7362;50.956;4.184;2022-07-22T10:04:31;28.30;96.20
14551;DHT22;7362;50.956;4.184;2022-07-22T10:07:00;28.30;96.70
14551;DHT22;7362;50.956;4.184;2022-07-22T10:09:29;28.20;96.50
14551;DHT22;7362;50.956;4.184;2022-07-22T10:11:56;27.90;96.70
14551;DHT22;7362;50.956;4.184;2022-07-22T10:14:22;27.60;96.80
14551;DHT22;7362;50.956;4.184;2022-07-22T10:16:56;27.50;97.20
14551;DHT22;7362;50.956;4.184;2022-07-22T10:19:22;28.10;97.10
14551;DHT22;7362;50.956;4.184;2022-07-22T10:21:52;27.40;97.10
14551;DHT22;7362;50.956;4.184;2022-07-22T10:24:19;26.60;99.00
14551;DHT22;7362;50.956;4.184;2022-07-22T10:26:52;26.00;99.60
14551;DHT22;7362;50.956;4.184;2022-07-22T10:29:42;27.10;99.10
14551;DHT22;7362;50.956;4.184;2022-07-22T10:35:21;28.30;96.50
14551;DHT22;7362;50.956;4.184;2022-07-22T10:38:00;29.60;96.50
14551;DHT22;7362;50.956;4.184;2022-07-22T10:41:07;29.60;94.90
14551;DHT22;7362;50.956;4.184;2022-07-22T10:46:08;31.20;92.80
14551;DHT22;7362;50.956;4.184;2022-07-22T10:51:21;30.80;92.70
14551;DHT22;7362;50.956;4.184;2022-07-22T10:54:07;30.30;93.00
14551;DHT22;7362;50.956;4.184;2022-07-22T10:56:35;29.80;93.40
14551;DHT22;7362;50.956;4.184;2022-07-22T11:01:39;31.90;91.70
14551;DHT22;7362;50.956;4.184;2022-07-22T11:04:26;33.70;90.00
14551;DHT22;7362;50.956;4.184;2022-07-22T11:06:55;33.60;87.50
14551;DHT22;7362;50.956;4.184;2022-07-22T11:09:32;33.10;87.10
14551;DHT22;7362;50.956;4.184;2022-07-22T11:11:58;32.60;86.50
14551;DHT22;7362;50.956;4.184;2022-07-22T11:14:27;32.00;87.80
14551;DHT22;7362;50.956;4.184;2022-07-22T11:17:16;31.30;88.70
14551;DHT22;7362;50.956;4.184;2022-07-22T11:19:43;30.30;90.60
14551;DHT22;7362;50.956;4.184;2022-07-22T11:22:12;30.90;90.30
14551;DHT22;7362;50.956;4.184;2022-07-22T11:24:40;30.80;90.00
14551;DHT22;7362;50.956;4.184;2022-07-22T11:27:14;31.40;89.60
14551;DHT22;7362;50.956;4.184;2022-07-22T11:29:41;30.20;90.40
14551;DHT22;7362;50.956;4.184;2022-07-22T11:32:13;29.30;91.40
14551;DHT22;7362;50.956;4.184;2022-07-22T11:34:43;29.70;91.50
14551;DHT22;7362;50.956;4.184;2022-07-22T11:37:18;29.60;91.80
14551;DHT22;7362;50.956;4.184;2022-07-22T11:39:45;29.80;92.20
14551;DHT22;7362;50.956;4.184;2022-07-22T11:57:49;27.80;93.80
14551;DHT22;7362;50.956;4.184;2022-07-22T12:00:25;26.90;95.60
14551;DHT22;7362;50.956;4.184;2022-07-22T12:03:03;26.70;96.80
14551;DHT22;7362;50.956;4.184;2022-07-22T12:05:29;27.30;96.20
14551;DHT22;7362;50.956;4.184;2022-07-22T12:07:56;27.20;96.00
14551;DHT22;7362;50.956;4.184;2022-07-22T12:10:26;27.10;95.70
14551;DHT22;7362;50.956;4.184;2022-07-22T12:12:52;27.40;96.00
14551;DHT22;7362;50.956;4.184;2022-07-22T12:15:21;27.60;96.20
14551;DHT22;7362;50.956;4.184;2022-07-22T12:17:47;27.60;95.80
14551;DHT22;7362;50.956;4.184;2022-07-22T12:20:13;27.40;96.10
14551;DHT22;7362;50.956;4.184;2022-07-22T12:22:52;27.00;96.90
14551;DHT22;7362;50.956;4.184;2022-07-22T12:25:19;28.00;96.00
14551;DHT22;7362;50.956;4.184;2022-07-22T12:28:00;28.50;95.30
14551;DHT22;7362;50.956;4.184;2022-07-22T12:30:27;28.90;94.60
14551;DHT22;7362;50.956;4.184;2022-07-22T12:32:55;28.40;94.70
14551;DHT22;7362;50.956;4.184;2022-07-22T12:35:26;28.00;95.30
14551;DHT22;7362;50.956;4.184;2022-07-22T12:37:54;27.60;95.70
14551;DHT22;7362;50.956;4.184;2022-07-22T12:40:22;27.80;95.80
14551;DHT22;7362;50.956;4.184;2022-07-22T12:43:07;27.80;95.60
14551;DHT22;7362;50.956;4.184;2022-07-22T12:45:38;27.60;96.10
14551;DHT22;7362;50.956;4.184;2022-07-22T12:48:10;27.70;96.00
14551;DHT22;7362;50.956;4.184;2022-07-22T12:53:17;28.20;96.10
14551;DHT22;7362;50.956;4.184;2022-07-22T12:55:50;28.40;95.70
14551;DHT22;7362;50.956;4.184;2022-07-22T12:58:30;28.50;95.00
14551;DHT22;7362;50.956;4.184;2022-07-22T13:03:55;27.90;95.80
14551;DHT22;7362;50.956;4.184;2022-07-22T13:06:57;27.90;96.20
14551;DHT22;7362;50.956;4.184;2022-07-22T13:09:33;27.20;97.40
14551;DHT22;7362;50.956;4.184;2022-07-22T13:12:17;27.30;97.10
14551;DHT22;7362;50.956;4.184;2022-07-22T13:14:49;27.50;97.40
14551;DHT22;7362;50.956;4.184;2022-07-22T13:19:54;28.00;96.80
14551;DHT22;7362;50.956;4.184;2022-07-22T13:22:47;27.60;97.00
14551;DHT22;7362;50.956;4.184;2022-07-22T13:25:23;27.50;97.10
14551;DHT22;7362;50.956;4.184;2022-07-22T13:45:57;26.20;99.60
14551;DHT22;7362;50.956;4.184;2022-07-22T13:48:24;26.30;99.20
14551;DHT22;7362;50.956;4.184;2022-07-22T13:50:51;26.40;99.40
14551;DHT22;7362;50.956;4.184;2022-07-22T14:19:16;26.20;99.90
14551;DHT22;7362;50.956;4.184;2022-07-22T14:21:51;26.30;99.90
14551;DHT22;7362;50.956;4.184;2022-07-22T14:24:19;26.60;99.90
14551;DHT22;7362;50.956;4.184;2022-07-22T14:26:46;26.60;99.90
14551;DHT22;7362;50.956;4.184;2022-07-22T14:31:48;26.10;99.90
14551;DHT22;7362;50.956;4.184;2022-07-22T14:34:18;26.10;99.90
14551;DHT22;7362;50.956;4.184;2022-07-22T14:36:44;26.10;99.90
14551;DHT22;7362;50.956;4.184;2022-07-22T14:39:10;26.00;99.90
14551;DHT22;7362;50.956;4.184;2022-07-22T14:41:37;25.70;99.90
14551;DHT22;7362;50.956;4.184;2022-07-22T14:44:05;25.40;99.90
14551;DHT22;7362;50.956;4.184;2022-07-22T14:46:31;25.40;99.90
14551;DHT22;7362;50.956;4.184;2022-07-22T14:48:59;25.30;99.90
14551;DHT22;7362;50.956;4.184;2022-07-22T14:51:25;25.30;99.90
14551;DHT22;7362;50.956;4.184;2022-07-22T14:53:51;25.50;99.90
14551;DHT22;7362;50.956;4.184;2022-07-22T14:56:17;25.40;99.90
14551;DHT22;7362;50.956;4.184;2022-07-22T14:58:43;25.50;99.90
14551;DHT22;7362;50.956;4.184;2022-07-22T15:01:16;25.40;99.90
14551;DHT22;7362;50.956;4.184;2022-07-22T15:03:41;25.40;99.90
14551;DHT22;7362;50.956;4.184;2022-07-22T15:06:08;25.40;99.90
14551;DHT22;7362;50.956;4.184;2022-07-22T15:08:35;25.10;99.90
14551;DHT22;7362;50.956;4.184;2022-07-22T15:11:02;25.10;99.90
14551;DHT22;7362;50.956;4.184;2022-07-22T15:13:28;25.00;99.90
14551;DHT22;7362;50.956;4.184;2022-07-22T15:16:01;25.00;99.90
14551;DHT22;7362;50.956;4.184;2022-07-22T15:18:58;25.10;99.90
14551;DHT22;7362;50.956;4.184;2022-07-22T15:21:23;25.10;99.90
14551;DHT22;7362;50.956;4.184;2022-07-22T15:23:49;25.10;99.90
14551;DHT22;7362;50.956;4.184;2022-07-22T15:26:16;25.30;99.90
14551;DHT22;7362;50.956;4.184;2022-07-22T15:28:46;25.20;99.90
14551;DHT22;7362;50.956;4.184;2022-07-22T15:31:50;25.10;99.90
14551;DHT22;7362;50.956;4.184;2022-07-22T15:35:07;25.00;99.90
14551;DHT22;7362;50.956;4.184;2022-07-22T15:37:37;24.90;99.90
14551;DHT22;7362;50.956;4.184;2022-07-22T15:40:07;25.00;99.90
14551;DHT22;7362;50.956;4.184;2022-07-22T15:42:38;25.00;99.90
14551;DHT22;7362;50.956;4.184;2022-07-22T15:45:09;24.70;99.90
14551;DHT22;7362;50.956;4.184;2022-07-22T15:47:35;24.60;99.90
14551;DHT22;7362;50.956;4.184;2022-07-22T15:50:02;24.40;99.90
14551;DHT22;7362;50.956;4.184;2022-07-22T15:52:29;24.60;99.90
14551;DHT22;7362;50.956;4.184;2022-07-22T15:54:59;24.50;99.90
14551;DHT22;7362;50.956;4.184;2022-07-22T15:57:27;24.50;99.90
14551;DHT22;7362;50.956;4.184;2022-07-22T16:00:13;24.50;99.90
14551;DHT22;7362;50.956;4.184;2022-07-22T16:02:43;24.40;99.90
14551;DHT22;7362;50.956;4.184;2022-07-22T16:05:18;24.60;99.90
14551;DHT22;7362;50.956;4.184;2022-07-22T16:07:50;24.70;99.90
14551;DHT22;7362;50.956;4.184;2022-07-22T16:10:16;24.70;99.90
14551;DHT22;7362;50.956;4.184;2022-07-22T16:12:41;24.60;99.90
14551;DHT22;7362;50.956;4.184;2022-07-22T16:15:10;24.50;99.90
14551;DHT22;7362;50.956;4.184;2022-07-22T16:17:36;24.30;99.90
14551;DHT22;7362;50.956;4.184;2022-07-22T16:20:06;24.30;99.90
14551;DHT22;7362;50.956;4.184;2022-07-22T16:22:37;24.20;99.90
14551;DHT22;7362;50.956;4.184;2022-07-22T18:17:04;22.30;99.90
14551;DHT22;7362;50.956;4.184;2022-07-22T18:19:32;22.30;99.90
14551;DHT22;7362;50.956;4.184;2022-07-22T18:22:06;22.30;99.90
14551;DHT22;7362;50.956;4.184;2022-07-22T18:24:31;22.30;99.90
14551;DHT22;7362;50.956;4.184;2022-07-22T18:26:59;22.40;99.90
14551;DHT22;7362;50.956;4.184;2022-07-22T18:29:26;22.50;99.90
14551;DHT22;7362;50.956;4.184;2022-07-22T18:32:08;22.60;99.90
14551;DHT22;7362;50.956;4.184;2022-07-22T18:37:10;22.50;99.90
14551;DHT22;7362;50.956;4.184;2022-07-22T18:39:45;22.50;99.90
14551;DHT22;7362;50.956;4.184;2022-07-22T18:42:11;22.40;99.90
14551;DHT22;7362;50.956;4.184;2022-07-22T18:44:41;22.30;99.90
14551;DHT22;7362;50.956;4.184;2022-07-22T18:47:07;22.20;99.90
14551;DHT22;7362;50.956;4.184;2022-07-22T18:49:36;22.10;99.90
14551;DHT22;7362;50.956;4.184;2022-07-22T18:52:04;22.30;99.90
14551;DHT22;7362;50.956;4.184;2022-07-22T18:54:32;22.30;99.90
14551;DHT22;7362;50.956;4.184;2022-07-22T18:57:00;22.20;99.90
14551;DHT22;7362;50.956;4.184;2022-07-22T18:59:27;22.00;99.90
14551;DHT22;7362;50.956;4.184;2022-07-22T19:01:53;21.90;99.90
14551;DHT22;7362;50.956;4.184;2022-07-22T19:04:18;21.80;99.90
14551;DHT22;7362;50.956;4.184;2022-07-22T19:06:46;21.80;99.90
14551;DHT22;7362;50.956;4.184;2022-07-22T19:09:13;21.90;99.90
14551;DHT22;7362;50.956;4.184;2022-07-22T19:11:43;22.00;99.90